sensor_id;sensor_type;location;lat;lon;timestamp;P1;durP1;ratioP1;P2;durP2;ratioP2
24161;SDS011;12318;51.262;7.066;2023-11-21T00:02:14;36.13;;;20.00;;
24161;SDS011;12318;51.262;7.066;2023-11-21T00:04:40;30.02;;;17.42;;
24161;SDS011;12318;51.262;7.066;2023-11-21T00:07:06;27.35;;;16.40;;
24161;SDS011;12318;51.262;7.066;2023-11-21T00:09:32;29.20;;;18.20;;
24161;SDS011;12318;51.262;7.066;2023-11-21T00:12:00;24.30;;;14.38;;
24161;SDS011;12318;51.262;7.066;2023-11-21T00:14:27;38.20;;;20.23;;
24161;SDS011;12318;51.262;7.066;2023-11-21T00:16:53;27.63;;;17.70;;
24161;SDS011;12318;51.262;7.066;2023-11-21T00:19:19;33.47;;;18.10;;
24161;SDS011;12318;51.262;7.066;2023-11-21T00:21:45;48.25;;;25.27;;
24161;SDS011;12318;51.262;7.066;2023-11-21T00:24:12;23.52;;;14.13;;
24161;SDS011;12318;51.262;7.066;2023-11-21T00:26:39;19.08;;;12.68;;
24161;SDS011;12318;51.262;7.066;2023-11-21T00:29:05;23.25;;;14.52;;
24161;SDS011;12318;51.262;7.066;2023-11-21T00:31:35;23.00;;;14.05;;
24161;SDS011;12318;51.262;7.066;2023-11-21T00:34:05;29.10;;;16.33;;
24161;SDS011;12318;51.262;7.066;2023-11-21T00:36:31;28.63;;;16.10;;
24161;SDS011;12318;51.262;7.066;2023-11-21T00:38:57;24.92;;;15.35;;
24161;SDS011;12318;51.262;7.066;2023-11-21T00:41:24;28.42;;;17.48;;
24161;SDS011;12318;51.262;7.066;2023-11-21T00:43:52;26.02;;;13.73;;
24161;SDS011;12318;51.262;7.066;2023-11-21T00:46:19;27.52;;;12.65;;
24161;SDS011;12318;51.262;7.066;2023-11-21T00:48:45;22.23;;;11.02;;
24161;SDS011;12318;51.262;7.066;2023-11-21T00:51:11;18.52;;;9.70;;
24161;SDS011;12318;51.262;7.066;2023-11-21T00:53:38;22.25;;;10.75;;
24161;SDS011;12318;51.262;7.066;2023-11-21T00:56:04;27.10;;;13.45;;
24161;SDS011;12318;51.262;7.066;2023-11-21T00:58:31;28.48;;;14.18;;
24161;SDS011;12318;51.262;7.066;2023-11-21T01:00:58;30.17;;;12.68;;
24161;SDS011;12318;51.262;7.066;2023-11-21T01:03:24;25.27;;;11.25;;
24161;SDS011;12318;51.262;7.066;2023-11-21T01:05:50;26.48;;;13.05;;
24161;SDS011;12318;51.262;7.066;2023-11-21T01:08:16;29.80;;;14.68;;
24161;SDS011;12318;51.262;7.066;2023-11-21T01:10:42;28.55;;;12.82;;
24161;SDS011;12318;51.262;7.066;2023-11-21T01:13:09;23.77;;;11.27;;
24161;SDS011;12318;51.262;7.066;2023-11-21T01:15:36;31.75;;;13.35;;
24161;SDS011;12318;51.262;7.066;2023-11-21T01:18:02;29.80;;;14.50;;
24161;SDS011;12318;51.262;7.066;2023-11-21T01:20:28;25.13;;;12.18;;
24161;SDS011;12318;51.262;7.066;2023-11-21T01:22:54;26.35;;;13.68;;
24161;SDS011;12318;51.262;7.066;2023-11-21T01:25:21;32.75;;;16.23;;
24161;SDS011;12318;51.262;7.066;2023-11-21T01:27:47;33.38;;;17.60;;
24161;SDS011;12318;51.262;7.066;2023-11-21T01:30:13;29.58;;;15.43;;
24161;SDS011;12318;51.262;7.066;2023-11-21T01:32:39;36.92;;;17.48;;
24161;SDS011;12318;51.262;7.066;2023-11-21T01:35:06;21.35;;;12.80;;
24161;SDS011;12318;51.262;7.066;2023-11-21T01:37:32;32.95;;;16.52;;
24161;SDS011;12318;51.262;7.066;2023-11-21T01:39:59;36.78;;;17.75;;
24161;SDS011;12318;51.262;7.066;2023-11-21T01:42:26;20.98;;;12.38;;
24161;SDS011;12318;51.262;7.066;2023-11-21T01:44:54;31.63;;;14.57;;
24161;SDS011;12318;51.262;7.066;2023-11-21T01:47:20;27.77;;;13.98;;
24161;SDS011;12318;51.262;7.066;2023-11-21T01:49:46;26.38;;;13.32;;
24161;SDS011;12318;51.262;7.066;2023-11-21T01:52:13;27.45;;;13.82;;
24161;SDS011;12318;51.262;7.066;2023-11-21T01:54:40;24.73;;;14.05;;
24161;SDS011;12318;51.262;7.066;2023-11-21T01:57:07;36.40;;;17.90;;
24161;SDS011;12318;51.262;7.066;2023-11-21T01:59:34;21.90;;;11.68;;
24161;SDS011;12318;51.262;7.066;2023-11-21T02:02:04;21.55;;;12.98;;
24161;SDS011;12318;51.262;7.066;2023-11-21T02:04:34;29.25;;;14.35;;
24161;SDS011;12318;51.262;7.066;2023-11-21T02:07:02;30.52;;;13.73;;
24161;SDS011;12318;51.262;7.066;2023-11-21T02:09:30;25.20;;;13.52;;
24161;SDS011;12318;51.262;7.066;2023-11-21T02:11:58;26.67;;;12.75;;
24161;SDS011;12318;51.262;7.066;2023-11-21T02:14:27;26.80;;;14.50;;
24161;SDS011;12318;51.262;7.066;2023-11-21T02:16:54;30.67;;;15.82;;
24161;SDS011;12318;51.262;7.066;2023-11-21T02:19:22;35.83;;;16.73;;
24161;SDS011;12318;51.262;7.066;2023-11-21T02:21:51;59.58;;;22.17;;
24161;SDS011;12318;51.262;7.066;2023-11-21T02:24:20;49.58;;;20.13;;
24161;SDS011;12318;51.262;7.066;2023-11-21T02:26:47;27.73;;;14.18;;
24161;SDS011;12318;51.262;7.066;2023-11-21T02:29:13;36.15;;;17.30;;
24161;SDS011;12318;51.262;7.066;2023-11-21T02:31:43;34.33;;;15.38;;
24161;SDS011;12318;51.262;7.066;2023-11-21T02:34:15;40.50;;;18.55;;
24161;SDS011;12318;51.262;7.066;2023-11-21T02:36:42;28.83;;;14.80;;
24161;SDS011;12318;51.262;7.066;2023-11-21T02:39:09;35.60;;;17.20;;
24161;SDS011;12318;51.262;7.066;2023-11-21T02:41:35;36.35;;;17.42;;
24161;SDS011;12318;51.262;7.066;2023-11-21T02:44:01;37.90;;;18.08;;
24161;SDS011;12318;51.262;7.066;2023-11-21T02:46:28;34.50;;;16.35;;
24161;SDS011;12318;51.262;7.066;2023-11-21T02:48:54;44.50;;;20.95;;
24161;SDS011;12318;51.262;7.066;2023-11-21T02:51:20;31.20;;;15.35;;
24161;SDS011;12318;51.262;7.066;2023-11-21T02:53:46;33.35;;;16.08;;
24161;SDS011;12318;51.262;7.066;2023-11-21T02:56:12;38.45;;;20.13;;
24161;SDS011;12318;51.262;7.066;2023-11-21T02:58:41;64.05;;;25.63;;
24161;SDS011;12318;51.262;7.066;2023-11-21T03:01:09;38.53;;;18.17;;
24161;SDS011;12318;51.262;7.066;2023-11-21T03:03:36;49.55;;;22.13;;
24161;SDS011;12318;51.262;7.066;2023-11-21T03:06:04;43.97;;;20.55;;
24161;SDS011;12318;51.262;7.066;2023-11-21T03:08:30;50.50;;;23.35;;
24161;SDS011;12318;51.262;7.066;2023-11-21T03:10:57;35.97;;;18.70;;
24161;SDS011;12318;51.262;7.066;2023-11-21T03:13:23;38.25;;;19.15;;
24161;SDS011;12318;51.262;7.066;2023-11-21T03:15:50;51.53;;;22.23;;
24161;SDS011;12318;51.262;7.066;2023-11-21T03:18:16;45.95;;;19.00;;
24161;SDS011;12318;51.262;7.066;2023-11-21T03:20:43;41.13;;;18.45;;
24161;SDS011;12318;51.262;7.066;2023-11-21T03:23:12;40.95;;;17.98;;
24161;SDS011;12318;51.262;7.066;2023-11-21T03:25:38;40.42;;;19.55;;
24161;SDS011;12318;51.262;7.066;2023-11-21T03:28:04;40.88;;;18.55;;
24161;SDS011;12318;51.262;7.066;2023-11-21T03:30:30;33.53;;;15.68;;
24161;SDS011;12318;51.262;7.066;2023-11-21T03:32:56;34.50;;;18.75;;
24161;SDS011;12318;51.262;7.066;2023-11-21T03:35:22;33.67;;;15.63;;
24161;SDS011;12318;51.262;7.066;2023-11-21T03:37:49;39.25;;;18.98;;
24161;SDS011;12318;51.262;7.066;2023-11-21T03:40:15;43.70;;;19.02;;
24161;SDS011;12318;51.262;7.066;2023-11-21T03:42:41;33.30;;;15.23;;
24161;SDS011;12318;51.262;7.066;2023-11-21T03:45:07;46.70;;;20.48;;
24161;SDS011;12318;51.262;7.066;2023-11-21T03:47:34;39.03;;;17.20;;
24161;SDS011;12318;51.262;7.066;2023-11-21T03:50:00;44.80;;;19.25;;
24161;SDS011;12318;51.262;7.066;2023-11-21T03:52:26;41.60;;;17.85;;
24161;SDS011;12318;51.262;7.066;2023-11-21T03:54:53;47.67;;;20.67;;
24161;SDS011;12318;51.262;7.066;2023-11-21T03:57:20;27.00;;;15.48;;
24161;SDS011;12318;51.262;7.066;2023-11-21T03:59:46;34.72;;;17.60;;
24161;SDS011;12318;51.262;7.066;2023-11-21T04:02:13;36.60;;;15.55;;
24161;SDS011;12318;51.262;7.066;2023-11-21T04:04:39;48.22;;;18.70;;
24161;SDS011;12318;51.262;7.066;2023-11-21T04:07:06;32.20;;;15.07;;
24161;SDS011;12318;51.262;7.066;2023-11-21T04:09:32;42.58;;;18.65;;
24161;SDS011;12318;51.262;7.066;2023-11-21T04:11:58;34.13;;;15.90;;
24161;SDS011;12318;51.262;7.066;2023-11-21T04:14:24;35.65;;;16.17;;
24161;SDS011;12318;51.262;7.066;2023-11-21T04:16:50;41.65;;;18.38;;
24161;SDS011;12318;51.262;7.066;2023-11-21T04:19:16;32.45;;;15.13;;
24161;SDS011;12318;51.262;7.066;2023-11-21T04:21:43;38.17;;;15.68;;
24161;SDS011;12318;51.262;7.066;2023-11-21T04:24:09;35.97;;;17.27;;
24161;SDS011;12318;51.262;7.066;2023-11-21T04:26:36;28.70;;;14.32;;
24161;SDS011;12318;51.262;7.066;2023-11-21T04:29:02;30.30;;;14.50;;
24161;SDS011;12318;51.262;7.066;2023-11-21T04:31:29;36.70;;;16.70;;
24161;SDS011;12318;51.262;7.066;2023-11-21T04:33:55;26.15;;;14.52;;
24161;SDS011;12318;51.262;7.066;2023-11-21T04:36:21;36.40;;;16.48;;
24161;SDS011;12318;51.262;7.066;2023-11-21T04:38:48;34.13;;;16.45;;
24161;SDS011;12318;51.262;7.066;2023-11-21T04:41:14;34.85;;;17.25;;
24161;SDS011;12318;51.262;7.066;2023-11-21T04:43:40;36.53;;;16.25;;
24161;SDS011;12318;51.262;7.066;2023-11-21T04:46:07;39.58;;;17.67;;
24161;SDS011;12318;51.262;7.066;2023-11-21T04:48:33;41.10;;;19.55;;
24161;SDS011;12318;51.262;7.066;2023-11-21T04:50:59;46.95;;;20.40;;
24161;SDS011;12318;51.262;7.066;2023-11-21T04:53:25;54.45;;;22.55;;
24161;SDS011;12318;51.262;7.066;2023-11-21T04:55:51;45.95;;;21.65;;
24161;SDS011;12318;51.262;7.066;2023-11-21T04:58:17;38.83;;;19.75;;
24161;SDS011;12318;51.262;7.066;2023-11-21T05:00:45;41.55;;;19.40;;
24161;SDS011;12318;51.262;7.066;2023-11-21T05:03:11;31.10;;;15.60;;
24161;SDS011;12318;51.262;7.066;2023-11-21T05:05:38;33.83;;;15.73;;
24161;SDS011;12318;51.262;7.066;2023-11-21T05:08:04;29.73;;;14.85;;
24161;SDS011;12318;51.262;7.066;2023-11-21T05:10:30;38.45;;;17.40;;
24161;SDS011;12318;51.262;7.066;2023-11-21T05:12:56;30.15;;;15.35;;
24161;SDS011;12318;51.262;7.066;2023-11-21T05:15:23;28.30;;;14.52;;
24161;SDS011;12318;51.262;7.066;2023-11-21T05:17:50;26.95;;;15.27;;
24161;SDS011;12318;51.262;7.066;2023-11-21T05:20:17;24.02;;;13.93;;
24161;SDS011;12318;51.262;7.066;2023-11-21T05:22:46;23.98;;;13.05;;
24161;SDS011;12318;51.262;7.066;2023-11-21T05:25:13;23.70;;;12.07;;
24161;SDS011;12318;51.262;7.066;2023-11-21T05:27:40;25.63;;;13.88;;
24161;SDS011;12318;51.262;7.066;2023-11-21T05:30:09;31.52;;;15.18;;
24161;SDS011;12318;51.262;7.066;2023-11-21T05:32:37;28.55;;;15.15;;
24161;SDS011;12318;51.262;7.066;2023-11-21T05:35:04;39.67;;;18.70;;
24161;SDS011;12318;51.262;7.066;2023-11-21T05:37:35;38.28;;;17.38;;
24161;SDS011;12318;51.262;7.066;2023-11-21T05:40:01;36.10;;;15.88;;
24161;SDS011;12318;51.262;7.066;2023-11-21T05:42:31;33.22;;;16.55;;
24161;SDS011;12318;51.262;7.066;2023-11-21T05:44:57;23.85;;;12.82;;
24161;SDS011;12318;51.262;7.066;2023-11-21T05:47:40;23.00;;;12.90;;
24161;SDS011;12318;51.262;7.066;2023-11-21T05:50:07;26.33;;;12.85;;
24161;SDS011;12318;51.262;7.066;2023-11-21T05:52:37;31.75;;;15.05;;
24161;SDS011;12318;51.262;7.066;2023-11-21T05:55:05;32.53;;;15.25;;
24161;SDS011;12318;51.262;7.066;2023-11-21T05:57:33;29.98;;;14.48;;
24161;SDS011;12318;51.262;7.066;2023-11-21T06:00:02;38.30;;;18.02;;
24161;SDS011;12318;51.262;7.066;2023-11-21T06:02:28;32.55;;;15.52;;
24161;SDS011;12318;51.262;7.066;2023-11-21T06:04:54;26.00;;;13.82;;
24161;SDS011;12318;51.262;7.066;2023-11-21T06:07:20;26.45;;;14.18;;
24161;SDS011;12318;51.262;7.066;2023-11-21T06:09:46;25.35;;;14.02;;
24161;SDS011;12318;51.262;7.066;2023-11-21T06:12:15;28.85;;;13.43;;
24161;SDS011;12318;51.262;7.066;2023-11-21T06:14:41;41.30;;;18.90;;
24161;SDS011;12318;51.262;7.066;2023-11-21T06:17:07;37.28;;;17.48;;
24161;SDS011;12318;51.262;7.066;2023-11-21T06:19:34;30.38;;;16.58;;
24161;SDS011;12318;51.262;7.066;2023-11-21T06:22:00;37.30;;;17.48;;
24161;SDS011;12318;51.262;7.066;2023-11-21T06:24:26;30.38;;;16.55;;
24161;SDS011;12318;51.262;7.066;2023-11-21T06:26:53;35.17;;;18.15;;
24161;SDS011;12318;51.262;7.066;2023-11-21T06:29:19;32.95;;;18.60;;
24161;SDS011;12318;51.262;7.066;2023-11-21T06:31:45;39.53;;;19.40;;
24161;SDS011;12318;51.262;7.066;2023-11-21T06:34:12;31.58;;;15.43;;
24161;SDS011;12318;51.262;7.066;2023-11-21T06:36:38;39.60;;;20.27;;
24161;SDS011;12318;51.262;7.066;2023-11-21T06:39:05;42.97;;;20.90;;
24161;SDS011;12318;51.262;7.066;2023-11-21T06:41:33;49.55;;;20.98;;
24161;SDS011;12318;51.262;7.066;2023-11-21T06:43:59;48.10;;;22.83;;
24161;SDS011;12318;51.262;7.066;2023-11-21T06:46:25;57.97;;;24.50;;
24161;SDS011;12318;51.262;7.066;2023-11-21T06:48:52;30.98;;;16.25;;
24161;SDS011;12318;51.262;7.066;2023-11-21T06:51:18;37.50;;;18.40;;
24161;SDS011;12318;51.262;7.066;2023-11-21T06:53:44;31.20;;;17.50;;
24161;SDS011;12318;51.262;7.066;2023-11-21T06:56:16;50.85;;;25.13;;
24161;SDS011;12318;51.262;7.066;2023-11-21T06:58:43;26.83;;;16.55;;
24161;SDS011;12318;51.262;7.066;2023-11-21T07:01:10;28.73;;;16.50;;
24161;SDS011;12318;51.262;7.066;2023-11-21T07:03:36;36.75;;;18.98;;
24161;SDS011;12318;51.262;7.066;2023-11-21T07:06:03;29.27;;;17.15;;
24161;SDS011;12318;51.262;7.066;2023-11-21T07:08:30;28.33;;;16.58;;
24161;SDS011;12318;51.262;7.066;2023-11-21T07:10:56;39.97;;;18.90;;
24161;SDS011;12318;51.262;7.066;2023-11-21T07:13:22;33.05;;;18.20;;
24161;SDS011;12318;51.262;7.066;2023-11-21T07:15:49;31.30;;;17.90;;
24161;SDS011;12318;51.262;7.066;2023-11-21T07:18:15;47.90;;;21.20;;
24161;SDS011;12318;51.262;7.066;2023-11-21T07:20:41;42.80;;;21.60;;
24161;SDS011;12318;51.262;7.066;2023-11-21T07:23:07;38.63;;;20.60;;
24161;SDS011;12318;51.262;7.066;2023-11-21T07:25:33;47.08;;;22.23;;
24161;SDS011;12318;51.262;7.066;2023-11-21T07:27:59;51.50;;;24.00;;
24161;SDS011;12318;51.262;7.066;2023-11-21T07:30:26;49.97;;;24.52;;
24161;SDS011;12318;51.262;7.066;2023-11-21T07:32:52;45.22;;;23.70;;
24161;SDS011;12318;51.262;7.066;2023-11-21T07:35:18;52.35;;;24.58;;
24161;SDS011;12318;51.262;7.066;2023-11-21T07:37:44;71.97;;;29.77;;
24161;SDS011;12318;51.262;7.066;2023-11-21T07:40:12;67.50;;;30.45;;
24161;SDS011;12318;51.262;7.066;2023-11-21T07:42:38;67.03;;;31.23;;
24161;SDS011;12318;51.262;7.066;2023-11-21T07:45:07;70.03;;;31.75;;
24161;SDS011;12318;51.262;7.066;2023-11-21T07:47:34;91.40;;;35.33;;
24161;SDS011;12318;51.262;7.066;2023-11-21T07:50:03;111.63;;;37.30;;
24161;SDS011;12318;51.262;7.066;2023-11-21T07:52:29;119.63;;;37.83;;
24161;SDS011;12318;51.262;7.066;2023-11-21T07:54:55;135.32;;;40.42;;
24161;SDS011;12318;51.262;7.066;2023-11-21T07:57:21;113.20;;;39.00;;
24161;SDS011;12318;51.262;7.066;2023-11-21T07:59:47;199.30;;;42.88;;
24161;SDS011;12318;51.262;7.066;2023-11-21T08:02:14;180.43;;;43.90;;
24161;SDS011;12318;51.262;7.066;2023-11-21T08:04:41;73.22;;;32.05;;
24161;SDS011;12318;51.262;7.066;2023-11-21T08:07:08;151.73;;;40.53;;
24161;SDS011;12318;51.262;7.066;2023-11-21T08:09:34;121.22;;;37.53;;
24161;SDS011;12318;51.262;7.066;2023-11-21T08:12:00;154.50;;;44.03;;
24161;SDS011;12318;51.262;7.066;2023-11-21T08:14:27;81.30;;;34.28;;
24161;SDS011;12318;51.262;7.066;2023-11-21T08:16:54;266.58;;;40.47;;
24161;SDS011;12318;51.262;7.066;2023-11-21T08:19:23;338.92;;;34.13;;
24161;SDS011;12318;51.262;7.066;2023-11-21T08:21:50;26.88;;;15.25;;
24161;SDS011;12318;51.262;7.066;2023-11-21T08:24:16;201.13;;;23.40;;
24161;SDS011;12318;51.262;7.066;2023-11-21T08:26:42;127.20;;;24.60;;
24161;SDS011;12318;51.262;7.066;2023-11-21T08:29:08;396.45;;;33.67;;
24161;SDS011;12318;51.262;7.066;2023-11-21T08:31:34;214.32;;;30.92;;
24161;SDS011;12318;51.262;7.066;2023-11-21T08:34:01;172.63;;;31.05;;
24161;SDS011;12318;51.262;7.066;2023-11-21T08:36:27;83.97;;;30.83;;
24161;SDS011;12318;51.262;7.066;2023-11-21T08:38:53;134.25;;;31.08;;
24161;SDS011;12318;51.262;7.066;2023-11-21T08:41:20;302.98;;;42.50;;
24161;SDS011;12318;51.262;7.066;2023-11-21T08:43:51;309.15;;;40.85;;
24161;SDS011;12318;51.262;7.066;2023-11-21T08:46:20;346.75;;;45.17;;
24161;SDS011;12318;51.262;7.066;2023-11-21T08:48:46;262.95;;;40.00;;
24161;SDS011;12318;51.262;7.066;2023-11-21T08:51:12;94.72;;;32.28;;
24161;SDS011;12318;51.262;7.066;2023-11-21T08:53:39;248.70;;;39.90;;
24161;SDS011;12318;51.262;7.066;2023-11-21T08:56:05;163.60;;;35.78;;
24161;SDS011;12318;51.262;7.066;2023-11-21T08:58:31;203.82;;;35.80;;
24161;SDS011;12318;51.262;7.066;2023-11-21T09:00:58;279.55;;;41.47;;
24161;SDS011;12318;51.262;7.066;2023-11-21T09:03:24;262.08;;;40.05;;
24161;SDS011;12318;51.262;7.066;2023-11-21T09:05:50;257.88;;;38.50;;
24161;SDS011;12318;51.262;7.066;2023-11-21T09:08:16;288.23;;;41.53;;
24161;SDS011;12318;51.262;7.066;2023-11-21T09:10:43;378.45;;;43.83;;
24161;SDS011;12318;51.262;7.066;2023-11-21T09:13:12;132.45;;;36.78;;
24161;SDS011;12318;51.262;7.066;2023-11-21T09:15:38;476.45;;;52.17;;
24161;SDS011;12318;51.262;7.066;2023-11-21T09:18:05;79.15;;;32.53;;
24161;SDS011;12318;51.262;7.066;2023-11-21T09:20:31;284.70;;;43.50;;
24161;SDS011;12318;51.262;7.066;2023-11-21T09:22:57;387.20;;;48.05;;
24161;SDS011;12318;51.262;7.066;2023-11-21T09:25:24;518.42;;;54.78;;
24161;SDS011;12318;51.262;7.066;2023-11-21T09:27:50;260.35;;;39.88;;
24161;SDS011;12318;51.262;7.066;2023-11-21T09:30:16;515.65;;;50.30;;
24161;SDS011;12318;51.262;7.066;2023-11-21T09:32:42;71.82;;;30.98;;
24161;SDS011;12318;51.262;7.066;2023-11-21T09:35:10;212.48;;;40.90;;
24161;SDS011;12318;51.262;7.066;2023-11-21T09:37:38;252.18;;;40.90;;
24161;SDS011;12318;51.262;7.066;2023-11-21T09:40:05;98.82;;;33.45;;
24161;SDS011;12318;51.262;7.066;2023-11-21T09:42:42;158.88;;;35.95;;
24161;SDS011;12318;51.262;7.066;2023-11-21T09:45:26;131.60;;;35.60;;
24161;SDS011;12318;51.262;7.066;2023-11-21T09:47:56;100.18;;;32.75;;
24161;SDS011;12318;51.262;7.066;2023-11-21T09:50:23;137.55;;;33.00;;
24161;SDS011;12318;51.262;7.066;2023-11-21T09:52:55;99.70;;;31.92;;
24161;SDS011;12318;51.262;7.066;2023-11-21T09:55:24;84.13;;;30.05;;
24161;SDS011;12318;51.262;7.066;2023-11-21T09:57:55;99.28;;;33.70;;
24161;SDS011;12318;51.262;7.066;2023-11-21T10:00:22;112.00;;;33.22;;
24161;SDS011;12318;51.262;7.066;2023-11-21T10:02:49;141.60;;;36.10;;
24161;SDS011;12318;51.262;7.066;2023-11-21T10:05:15;102.68;;;34.72;;
24161;SDS011;12318;51.262;7.066;2023-11-21T10:07:43;70.03;;;28.20;;
24161;SDS011;12318;51.262;7.066;2023-11-21T10:10:10;109.38;;;34.55;;
24161;SDS011;12318;51.262;7.066;2023-11-21T10:12:36;74.68;;;31.02;;
24161;SDS011;12318;51.262;7.066;2023-11-21T10:15:03;164.18;;;34.25;;
24161;SDS011;12318;51.262;7.066;2023-11-21T10:17:33;122.65;;;35.92;;
24161;SDS011;12318;51.262;7.066;2023-11-21T10:20:08;134.40;;;36.70;;
24161;SDS011;12318;51.262;7.066;2023-11-21T10:22:38;111.55;;;35.75;;
24161;SDS011;12318;51.262;7.066;2023-11-21T10:25:06;127.15;;;37.53;;
24161;SDS011;12318;51.262;7.066;2023-11-21T10:27:33;146.60;;;40.47;;
24161;SDS011;12318;51.262;7.066;2023-11-21T10:30:02;131.20;;;37.50;;
24161;SDS011;12318;51.262;7.066;2023-11-21T10:32:40;135.80;;;37.78;;
24161;SDS011;12318;51.262;7.066;2023-11-21T10:35:06;122.13;;;37.45;;
24161;SDS011;12318;51.262;7.066;2023-11-21T10:37:38;85.45;;;31.73;;
24161;SDS011;12318;51.262;7.066;2023-11-21T10:40:08;83.13;;;33.90;;
24161;SDS011;12318;51.262;7.066;2023-11-21T10:42:37;76.90;;;30.85;;
24161;SDS011;12318;51.262;7.066;2023-11-21T10:45:03;129.82;;;39.38;;
24161;SDS011;12318;51.262;7.066;2023-11-21T10:47:35;112.32;;;37.17;;
24161;SDS011;12318;51.262;7.066;2023-11-21T10:50:02;101.40;;;36.10;;
24161;SDS011;12318;51.262;7.066;2023-11-21T10:52:29;119.65;;;38.10;;
24161;SDS011;12318;51.262;7.066;2023-11-21T10:54:55;98.63;;;36.78;;
24161;SDS011;12318;51.262;7.066;2023-11-21T10:57:24;103.32;;;33.13;;
24161;SDS011;12318;51.262;7.066;2023-11-21T10:59:50;66.43;;;25.90;;
24161;SDS011;12318;51.262;7.066;2023-11-21T11:02:23;77.07;;;27.52;;
24161;SDS011;12318;51.262;7.066;2023-11-21T11:04:53;67.85;;;26.13;;
24161;SDS011;12318;51.262;7.066;2023-11-21T11:07:27;60.55;;;24.45;;
24161;SDS011;12318;51.262;7.066;2023-11-21T11:12:21;69.05;;;27.27;;
24161;SDS011;12318;51.262;7.066;2023-11-21T11:14:48;71.47;;;25.67;;
24161;SDS011;12318;51.262;7.066;2023-11-21T11:17:14;65.00;;;26.88;;
24161;SDS011;12318;51.262;7.066;2023-11-21T11:19:41;84.75;;;29.35;;
24161;SDS011;12318;51.262;7.066;2023-11-21T11:22:19;78.47;;;26.42;;
24161;SDS011;12318;51.262;7.066;2023-11-21T11:34:55;70.78;;;23.75;;
24161;SDS011;12318;51.262;7.066;2023-11-21T11:37:22;62.95;;;24.67;;
24161;SDS011;12318;51.262;7.066;2023-11-21T11:39:49;65.95;;;24.42;;
24161;SDS011;12318;51.262;7.066;2023-11-21T11:42:16;74.78;;;26.48;;
24161;SDS011;12318;51.262;7.066;2023-11-21T11:47:22;69.70;;;23.95;;
24161;SDS011;12318;51.262;7.066;2023-11-21T11:52:41;64.30;;;23.13;;
24161;SDS011;12318;51.262;7.066;2023-11-21T11:55:09;71.05;;;22.13;;
24161;SDS011;12318;51.262;7.066;2023-11-21T11:57:41;62.75;;;22.70;;
24161;SDS011;12318;51.262;7.066;2023-11-21T12:00:15;65.40;;;22.30;;
24161;SDS011;12318;51.262;7.066;2023-11-21T12:02:42;59.70;;;22.35;;
24161;SDS011;12318;51.262;7.066;2023-11-21T12:05:09;58.97;;;22.45;;
24161;SDS011;12318;51.262;7.066;2023-11-21T12:07:51;65.10;;;25.17;;
24161;SDS011;12318;51.262;7.066;2023-11-21T12:10:25;69.93;;;24.58;;
24161;SDS011;12318;51.262;7.066;2023-11-21T12:12:52;71.57;;;26.58;;
24161;SDS011;12318;51.262;7.066;2023-11-21T12:15:19;77.40;;;28.63;;
24161;SDS011;12318;51.262;7.066;2023-11-21T12:17:46;79.57;;;30.60;;
24161;SDS011;12318;51.262;7.066;2023-11-21T12:20:12;89.72;;;29.40;;
24161;SDS011;12318;51.262;7.066;2023-11-21T12:25:14;85.18;;;30.60;;
24161;SDS011;12318;51.262;7.066;2023-11-21T12:27:51;91.32;;;32.28;;
24161;SDS011;12318;51.262;7.066;2023-11-21T12:30:21;81.47;;;30.83;;
24161;SDS011;12318;51.262;7.066;2023-11-21T12:32:48;77.95;;;27.17;;
24161;SDS011;12318;51.262;7.066;2023-11-21T12:35:14;95.70;;;31.35;;
24161;SDS011;12318;51.262;7.066;2023-11-21T12:37:45;94.20;;;31.50;;
24161;SDS011;12318;51.262;7.066;2023-11-21T12:40:12;88.03;;;32.35;;
24161;SDS011;12318;51.262;7.066;2023-11-21T12:42:40;82.18;;;31.92;;
24161;SDS011;12318;51.262;7.066;2023-11-21T12:45:26;93.25;;;31.30;;
24161;SDS011;12318;51.262;7.066;2023-11-21T12:47:56;90.50;;;32.17;;
24161;SDS011;12318;51.262;7.066;2023-11-21T12:50:25;90.10;;;29.90;;
24161;SDS011;12318;51.262;7.066;2023-11-21T12:53:06;89.80;;;31.80;;
24161;SDS011;12318;51.262;7.066;2023-11-21T12:55:37;100.83;;;32.53;;
24161;SDS011;12318;51.262;7.066;2023-11-21T12:58:07;101.05;;;34.50;;
24161;SDS011;12318;51.262;7.066;2023-11-21T13:00:39;108.10;;;34.78;;
24161;SDS011;12318;51.262;7.066;2023-11-21T13:03:07;106.65;;;33.67;;
24161;SDS011;12318;51.262;7.066;2023-11-21T13:05:38;104.85;;;34.53;;
24161;SDS011;12318;51.262;7.066;2023-11-21T13:08:05;106.30;;;34.92;;
24161;SDS011;12318;51.262;7.066;2023-11-21T13:10:33;106.90;;;35.42;;
24161;SDS011;12318;51.262;7.066;2023-11-21T13:13:01;103.30;;;35.55;;
24161;SDS011;12318;51.262;7.066;2023-11-21T13:15:30;109.43;;;36.25;;
24161;SDS011;12318;51.262;7.066;2023-11-21T13:17:58;132.10;;;39.35;;
24161;SDS011;12318;51.262;7.066;2023-11-21T13:20:27;117.57;;;40.53;;
24161;SDS011;12318;51.262;7.066;2023-11-21T13:22:55;145.05;;;43.15;;
24161;SDS011;12318;51.262;7.066;2023-11-21T13:25:27;132.32;;;42.22;;
24161;SDS011;12318;51.262;7.066;2023-11-21T13:27:53;136.93;;;44.50;;
24161;SDS011;12318;51.262;7.066;2023-11-21T13:30:20;137.73;;;44.58;;
24161;SDS011;12318;51.262;7.066;2023-11-21T13:32:55;161.00;;;46.63;;
24161;SDS011;12318;51.262;7.066;2023-11-21T13:35:23;148.77;;;46.00;;
24161;SDS011;12318;51.262;7.066;2023-11-21T13:38:12;149.75;;;46.50;;
24161;SDS011;12318;51.262;7.066;2023-11-21T13:40:40;167.40;;;49.65;;
24161;SDS011;12318;51.262;7.066;2023-11-21T13:45:38;157.38;;;46.97;;
24161;SDS011;12318;51.262;7.066;2023-11-21T13:48:07;167.70;;;46.65;;
24161;SDS011;12318;51.262;7.066;2023-11-21T13:50:44;120.05;;;41.13;;
24161;SDS011;12318;51.262;7.066;2023-11-21T13:53:21;112.35;;;39.22;;
24161;SDS011;12318;51.262;7.066;2023-11-21T13:55:48;71.72;;;31.33;;
24161;SDS011;12318;51.262;7.066;2023-11-21T13:58:15;90.15;;;34.60;;
24161;SDS011;12318;51.262;7.066;2023-11-21T14:00:47;88.15;;;35.90;;
24161;SDS011;12318;51.262;7.066;2023-11-21T14:03:21;66.53;;;32.30;;
24161;SDS011;12318;51.262;7.066;2023-11-21T14:05:48;66.00;;;32.45;;
24161;SDS011;12318;51.262;7.066;2023-11-21T14:08:18;66.80;;;32.63;;
24161;SDS011;12318;51.262;7.066;2023-11-21T14:10:46;47.75;;;25.58;;
24161;SDS011;12318;51.262;7.066;2023-11-21T14:13:22;52.33;;;27.98;;
24161;SDS011;12318;51.262;7.066;2023-11-21T14:15:50;55.05;;;28.70;;
24161;SDS011;12318;51.262;7.066;2023-11-21T14:18:22;37.17;;;22.13;;
24161;SDS011;12318;51.262;7.066;2023-11-21T14:20:56;44.63;;;23.58;;
24161;SDS011;12318;51.262;7.066;2023-11-21T14:23:22;32.92;;;19.67;;
24161;SDS011;12318;51.262;7.066;2023-11-21T14:25:49;22.65;;;14.90;;
24161;SDS011;12318;51.262;7.066;2023-11-21T14:28:16;28.45;;;17.80;;
24161;SDS011;12318;51.262;7.066;2023-11-21T14:30:44;26.90;;;17.00;;
24161;SDS011;12318;51.262;7.066;2023-11-21T14:33:11;24.02;;;16.13;;
24161;SDS011;12318;51.262;7.066;2023-11-21T14:35:37;38.35;;;19.88;;
24161;SDS011;12318;51.262;7.066;2023-11-21T14:38:03;34.40;;;18.40;;
24161;SDS011;12318;51.262;7.066;2023-11-21T14:40:30;31.33;;;18.65;;
24161;SDS011;12318;51.262;7.066;2023-11-21T14:43:01;28.65;;;18.15;;
24161;SDS011;12318;51.262;7.066;2023-11-21T14:45:30;28.48;;;17.63;;